AirNav   Bose Proflight Series 2 Wireless Aviation Headset
 
 957 users online  

MO59 Lee's Summit Medical Center Heliport
Lee's Summit, Missouri, USA

GOING TO LEE'S SUMMIT?


FAA INFORMATION EFFECTIVE 07 NOVEMBER 2019

Location

FAA Identifier: MO59
Lat/Long: 38-54-13.1100N 094-19-53.6100W
38-54.218500N 094-19.893500W
38.9036417,-94.3315583
(estimated)
Elevation: 1005 ft. / 306 m (estimated)
From city: 1 mile E of LEE'S SUMMIT, MO
Time zone: UTC -6 (UTC -5 during Daylight Saving Time)
Zip code: 64086

Heliport Operations

Heliport use: Private use. Permission required prior to landing
Activation date: 09/2015
Control tower: no
ARTCC: KANSAS CITY CENTER
FSS: COLUMBIA FLIGHT SERVICE STATION
Attendance: UNATTNDED
Wind indicator: yes
Segmented circle: no

Heliport Communications

WX ASOS at LXT (4 nm NW): 124.175 (816-347-9807)
WX AWOS-3PT at LRY (18 nm S): 119.975 (816-380-5936)
WX ASOS at MKC (18 nm NW): PHONE 816-329-2843
WX ASOS at OJC (19 nm W): PHONE 913-780-6969

Nearby radio navigation aids

VOR radial/distance  VOR name  Freq  Var
ANXr212/14.9NAPOLEON VORTAC114.0007E
MCIr135/29.7KANSAS CITY VORTAC113.2505E
BUMr004/38.6BUTLER VORTAC115.9007E

Heliport Services

Runway Information

Helipad H1

Dimensions: 45 x 45 ft. / 14 x 14 m
Surface: concrete/gravel
Runway edge lights: PERI
Latitude: 38-54.218500N
Longitude: 094-19.893500W
Traffic pattern: leftleft

Heliport Ownership and Management from official FAA records

Ownership: Privately-owned
Owner: LEE'S SUMMIT MEDICAL CENTER
2100 SE BLUE PARKWAY
LEE'S SUMMIT, MO 64063
Phone 816-969-6000
Manager: TIMOTHY MCGINNIS
2100 SE BLUE PARKWAY
LEE'S SUMMIT, MO 64063
Phone 816-282-5086

Additional Remarks

FOR CD CTC KANSAS CITY APCH AT 816-329-2710.

Instrument Procedures

There are no published instrument procedures at MO59.

Some nearby airports with instrument procedures:

KLXT - Lee's Summit Municipal Airport (4 nm NW)
3GV - East Kansas City Airport (9 nm NE)
KLRY - Lawrence Smith Memorial Airport (18 nm S)
KMKC - Charles B Wheeler Downtown Airport (18 nm NW)
KOJC - Johnson County Executive Airport (19 nm W)
 
Loc | Ops | Rwys | IFR | FBO | Links
Com | Nav | Svcs | Stats | Notes
Aerial photo
No photo
 
Airport distance calculator
Flying to Lee's Summit Medical Center Heliport? Find the distance to fly.

From to MO59

Sunrise and sunset
Times for 19-Nov-2019
 Local
(UTC-6)
 Zulu
(UTC)
Morning civil twilight06:3712:37
Sunrise07:0513:05
Sunset17:0023:00
Evening civil twilight17:2923:29

Current date and time
Zulu (UTC)  20-Nov-2019 02:45:59
Local (UTC-6)  19-Nov-2019 20:45:59
 
METAR
KLXT 
4nm NW 
200153Z AUTO 15007KT 10SM CLR 12/M01 A2994 RMK AO2 SLP141 T01171006
KLRY 
18nm S 
200235Z AUTO 00000KT 10SM +RA CLR 08/01 A2998 RMK AO2
KMKC 
18nm NW 
200154Z AUTO 07003KT 10SM CLR 11/00 A2993 RMK AO2 SLP135 T01110000
KOJC 
19nm W 
200153Z 14006KT 10SM CLR 11/01 A2993 RMK AO2 SLP137 T01110006
TAF
KMKC 
18nm NW 
191725Z 1918/2018 28007KT P6SM FEW250 FM200000 12006KT P6SM SCT250 FM201700 15011G21KT P6SM BKN250
NOTAMs
Click for the latest NOTAMs
NOTAMs are issued by the DoD/FAA and will open in a separate window not controlled by AirNav.

 

 
 

Would you like to see your business listed on this page?

 If your business provides an interesting product or service to pilots, flight crews, aircraft, or users of the Lee's Summit Medical Center Heliport, you should consider listing it here.  To start the listing process, click on the button below
 
Add a business
 

Other Pages about Lee's Summit Medical Center Heliport

Update a link
 
Copyright © AirNav, LLC. All rights reserved. Privacy Policy  Contact